sensor_id;sensor_type;location;lat;lon;timestamp;pressure;altitude;pressure_sealevel;temperature;humidity
40502;BME280;29631;49.168;9.848;2023-03-13T00:01:02;96130.41;;;14.47;79.42
40502;BME280;29631;49.168;9.848;2023-03-13T00:03:34;96142.06;;;14.46;79.54
40502;BME280;29631;49.168;9.848;2023-03-13T00:05:59;96142.06;;;14.46;79.28
40502;BME280;29631;49.168;9.848;2023-03-13T00:08:28;96147.34;;;14.46;79.11
40502;BME280;29631;49.168;9.848;2023-03-13T00:10:54;96153.81;;;14.50;79.57
40502;BME280;29631;49.168;9.848;2023-03-13T00:13:20;96102.38;;;14.18;79.21
40502;BME280;29631;49.168;9.848;2023-03-13T00:15:46;96150.50;;;14.43;79.93
40502;BME280;29631;49.168;9.848;2023-03-13T00:18:12;96110.53;;;14.16;79.30
40502;BME280;29631;49.168;9.848;2023-03-13T00:20:37;96130.66;;;14.29;79.28
40502;BME280;29631;49.168;9.848;2023-03-13T00:23:03;96133.88;;;14.31;80.31
40502;BME280;29631;49.168;9.848;2023-03-13T00:25:29;96137.56;;;14.30;80.08
40502;BME280;29631;49.168;9.848;2023-03-13T00:27:54;96141.75;;;14.26;79.83
40502;BME280;29631;49.168;9.848;2023-03-13T00:30:20;96118.19;;;14.13;79.61
40502;BME280;29631;49.168;9.848;2023-03-13T00:32:46;96122.31;;;14.09;80.22
40502;BME280;29631;49.168;9.848;2023-03-13T00:35:13;96136.75;;;14.13;80.09
40502;BME280;29631;49.168;9.848;2023-03-13T00:37:39;96130.28;;;14.09;80.06
40502;BME280;29631;49.168;9.848;2023-03-13T00:40:06;96137.88;;;14.17;80.43
40502;BME280;29631;49.168;9.848;2023-03-13T00:42:33;96130.63;;;14.12;79.93
40502;BME280;29631;49.168;9.848;2023-03-13T00:44:59;96134.31;;;14.11;80.65
40502;BME280;29631;49.168;9.848;2023-03-13T00:47:25;96123.34;;;14.08;79.96
40502;BME280;29631;49.168;9.848;2023-03-13T00:49:51;96128.31;;;14.16;80.20
40502;BME280;29631;49.168;9.848;2023-03-13T00:52:16;96100.38;;;13.97;80.02
40502;BME280;29631;49.168;9.848;2023-03-13T00:54:42;96121.41;;;14.03;80.10
40502;BME280;29631;49.168;9.848;2023-03-13T00:57:08;96114.38;;;14.09;80.34
40502;BME280;29631;49.168;9.848;2023-03-13T00:59:34;96106.66;;;14.07;80.43
40502;BME280;29631;49.168;9.848;2023-03-13T01:02:00;96103.44;;;14.05;80.23
40502;BME280;29631;49.168;9.848;2023-03-13T01:04:26;96103.94;;;14.02;80.42
40502;BME280;29631;49.168;9.848;2023-03-13T01:06:51;96092.50;;;14.02;80.88
40502;BME280;29631;49.168;9.848;2023-03-13T01:09:17;96094.03;;;13.98;80.37
40502;BME280;29631;49.168;9.848;2023-03-13T01:11:44;96084.47;;;13.97;80.30
40502;BME280;29631;49.168;9.848;2023-03-13T01:14:14;96073.72;;;13.87;80.21
40502;BME280;29631;49.168;9.848;2023-03-13T01:16:41;96070.00;;;13.88;81.10
40502;BME280;29631;49.168;9.848;2023-03-13T01:19:13;96068.19;;;13.88;80.45
40502;BME280;29631;49.168;9.848;2023-03-13T01:21:40;96034.28;;;13.74;81.05
40502;BME280;29631;49.168;9.848;2023-03-13T01:24:06;96062.06;;;13.88;80.67
40502;BME280;29631;49.168;9.848;2023-03-13T01:26:32;96057.31;;;13.90;80.73
40502;BME280;29631;49.168;9.848;2023-03-13T01:28:58;96051.94;;;13.85;81.09
40502;BME280;29631;49.168;9.848;2023-03-13T01:31:32;96057.31;;;13.90;80.75
40502;BME280;29631;49.168;9.848;2023-03-13T01:34:02;96056.13;;;13.97;80.80
40502;BME280;29631;49.168;9.848;2023-03-13T01:36:28;96049.94;;;13.92;81.51
40502;BME280;29631;49.168;9.848;2023-03-13T01:38:57;96011.94;;;13.70;80.61
40502;BME280;29631;49.168;9.848;2023-03-13T01:41:24;96053.78;;;14.01;81.06
40502;BME280;29631;49.168;9.848;2023-03-13T01:43:51;96044.47;;;13.98;81.31
40502;BME280;29631;49.168;9.848;2023-03-13T01:46:18;96051.25;;;14.06;81.19
40502;BME280;29631;49.168;9.848;2023-03-13T01:49:09;96046.41;;;14.03;80.29
40502;BME280;29631;49.168;9.848;2023-03-13T01:51:40;96045.44;;;14.09;81.05
40502;BME280;29631;49.168;9.848;2023-03-13T01:59:56;96029.53;;;14.09;81.07
40502;BME280;29631;49.168;9.848;2023-03-13T02:02:24;96015.72;;;14.07;81.19
40502;BME280;29631;49.168;9.848;2023-03-13T02:04:56;96010.91;;;14.04;81.59
40502;BME280;29631;49.168;9.848;2023-03-13T02:07:40;96015.72;;;14.07;81.25
40502;BME280;29631;49.168;9.848;2023-03-13T02:10:09;96016.66;;;14.12;81.19
40502;BME280;29631;49.168;9.848;2023-03-13T02:12:39;95997.75;;;14.09;81.26
40502;BME280;29631;49.168;9.848;2023-03-13T02:15:16;96003.38;;;14.12;81.27
40502;BME280;29631;49.168;9.848;2023-03-13T02:17:44;95993.69;;;14.18;80.64
40502;BME280;29631;49.168;9.848;2023-03-13T02:20:12;95962.16;;;14.05;80.96
40502;BME280;29631;49.168;9.848;2023-03-13T02:23:14;95982.34;;;14.22;80.79
40502;BME280;29631;49.168;9.848;2023-03-13T02:25:52;95990.69;;;14.31;81.12
40502;BME280;29631;49.168;9.848;2023-03-13T02:28:35;95989.13;;;14.35;80.59
40502;BME280;29631;49.168;9.848;2023-03-13T02:31:04;95972.91;;;14.31;81.24
40502;BME280;29631;49.168;9.848;2023-03-13T02:33:35;95991.31;;;14.38;80.69
40502;BME280;29631;49.168;9.848;2023-03-13T02:36:02;95954.84;;;14.28;80.56
40502;BME280;29631;49.168;9.848;2023-03-13T02:38:32;95958.88;;;14.31;80.47
40502;BME280;29631;49.168;9.848;2023-03-13T02:41:00;95972.50;;;14.39;80.52
40502;BME280;29631;49.168;9.848;2023-03-13T02:43:31;95966.88;;;14.36;80.59
40502;BME280;29631;49.168;9.848;2023-03-13T02:46:18;95960.47;;;14.32;80.25
40502;BME280;29631;49.168;9.848;2023-03-13T02:48:55;95949.34;;;14.35;80.72
40502;BME280;29631;49.168;9.848;2023-03-13T02:51:28;95961.56;;;14.36;80.82
40502;BME280;29631;49.168;9.848;2023-03-13T02:54:01;95946.13;;;14.33;80.02
40502;BME280;29631;49.168;9.848;2023-03-13T02:56:31;95952.31;;;14.38;80.56
40502;BME280;29631;49.168;9.848;2023-03-13T02:58:58;95949.72;;;14.43;80.24
40502;BME280;29631;49.168;9.848;2023-03-13T03:01:24;95932.16;;;14.37;80.25
40502;BME280;29631;49.168;9.848;2023-03-13T03:03:49;95957.53;;;14.50;79.87
40502;BME280;29631;49.168;9.848;2023-03-13T03:06:15;95936.72;;;14.42;80.18
40502;BME280;29631;49.168;9.848;2023-03-13T03:08:41;95912.13;;;14.25;80.79
40502;BME280;29631;49.168;9.848;2023-03-13T03:11:08;95926.84;;;14.37;80.33
40502;BME280;29631;49.168;9.848;2023-03-13T03:13:34;95933.44;;;14.35;80.94
40502;BME280;29631;49.168;9.848;2023-03-13T03:16:09;95941.56;;;14.45;80.41
40502;BME280;29631;49.168;9.848;2023-03-13T03:18:37;95943.69;;;14.48;80.77
40502;BME280;29631;49.168;9.848;2023-03-13T03:21:04;95927.72;;;14.43;80.47
40502;BME280;29631;49.168;9.848;2023-03-13T03:23:32;95921.38;;;14.44;80.78
40502;BME280;29631;49.168;9.848;2023-03-13T03:25:58;95922.47;;;14.48;80.37
40502;BME280;29631;49.168;9.848;2023-03-13T03:28:24;95901.16;;;14.38;81.56
40502;BME280;29631;49.168;9.848;2023-03-13T03:30:50;95911.81;;;14.43;81.42
40502;BME280;29631;49.168;9.848;2023-03-13T03:33:19;95916.69;;;14.51;81.10
40502;BME280;29631;49.168;9.848;2023-03-13T03:35:45;95893.41;;;14.36;81.46
40502;BME280;29631;49.168;9.848;2023-03-13T03:38:11;95861.06;;;14.13;81.42
40502;BME280;29631;49.168;9.848;2023-03-13T03:40:37;95909.78;;;14.50;81.59
40502;BME280;29631;49.168;9.848;2023-03-13T03:43:02;95919.41;;;14.55;81.54
40502;BME280;29631;49.168;9.848;2023-03-13T03:45:28;95898.00;;;14.41;81.62
40502;BME280;29631;49.168;9.848;2023-03-13T03:47:54;95918.00;;;14.48;81.86
40502;BME280;29631;49.168;9.848;2023-03-13T03:50:20;95928.41;;;14.54;81.46
40502;BME280;29631;49.168;9.848;2023-03-13T03:52:45;95919.41;;;14.55;81.94
40502;BME280;29631;49.168;9.848;2023-03-13T03:55:11;95900.22;;;14.49;82.15
40502;BME280;29631;49.168;9.848;2023-03-13T03:57:37;95914.34;;;14.54;82.74
40502;BME280;29631;49.168;9.848;2023-03-13T04:00:03;95903.91;;;14.48;83.02
40502;BME280;29631;49.168;9.848;2023-03-13T04:02:32;95910.56;;;14.50;82.91
40502;BME280;29631;49.168;9.848;2023-03-13T04:04:57;95911.44;;;14.55;82.96
40502;BME280;29631;49.168;9.848;2023-03-13T04:07:23;95908.97;;;14.49;82.95
40502;BME280;29631;49.168;9.848;2023-03-13T04:09:49;95906.09;;;14.51;82.69
40502;BME280;29631;49.168;9.848;2023-03-13T04:12:14;95870.94;;;14.39;82.94
40502;BME280;29631;49.168;9.848;2023-03-13T04:14:40;95884.66;;;14.57;83.56
40502;BME280;29631;49.168;9.848;2023-03-13T04:17:06;95877.97;;;14.50;83.27
40502;BME280;29631;49.168;9.848;2023-03-13T04:19:31;95867.81;;;14.47;83.60
40502;BME280;29631;49.168;9.848;2023-03-13T04:21:57;95875.34;;;14.54;82.98
40502;BME280;29631;49.168;9.848;2023-03-13T04:24:23;95825.41;;;14.25;83.23
40502;BME280;29631;49.168;9.848;2023-03-13T04:26:49;95840.03;;;14.28;83.53
40502;BME280;29631;49.168;9.848;2023-03-13T04:29:14;95853.28;;;14.28;83.78
40502;BME280;29631;49.168;9.848;2023-03-13T04:31:40;95869.75;;;14.30;84.30
40502;BME280;29631;49.168;9.848;2023-03-13T04:34:06;95850.84;;;14.21;83.99
40502;BME280;29631;49.168;9.848;2023-03-13T04:36:31;95860.09;;;14.19;84.36
40502;BME280;29631;49.168;9.848;2023-03-13T04:38:57;95855.00;;;14.17;84.46
40502;BME280;29631;49.168;9.848;2023-03-13T04:41:23;95837.44;;;14.11;84.46
40502;BME280;29631;49.168;9.848;2023-03-13T04:43:48;95830.69;;;14.04;84.63
40502;BME280;29631;49.168;9.848;2023-03-13T04:46:14;95852.56;;;14.11;84.71
40502;BME280;29631;49.168;9.848;2023-03-13T04:48:40;95853.34;;;14.11;84.86
40502;BME280;29631;49.168;9.848;2023-03-13T04:51:05;95828.00;;;13.99;84.84
40502;BME280;29631;49.168;9.848;2023-03-13T04:53:31;95840.47;;;14.03;84.88
40502;BME280;29631;49.168;9.848;2023-03-13T04:55:57;95818.59;;;13.91;85.39
40502;BME280;29631;49.168;9.848;2023-03-13T04:58:23;95830.84;;;13.97;85.00
40502;BME280;29631;49.168;9.848;2023-03-13T05:00:48;95851.91;;;14.04;85.66
40502;BME280;29631;49.168;9.848;2023-03-13T05:03:14;95825.88;;;14.01;86.00
40502;BME280;29631;49.168;9.848;2023-03-13T05:05:40;95830.13;;;14.02;85.75
40502;BME280;29631;49.168;9.848;2023-03-13T05:08:05;95823.31;;;14.06;86.88
40502;BME280;29631;49.168;9.848;2023-03-13T05:10:33;95821.38;;;14.01;86.67
40502;BME280;29631;49.168;9.848;2023-03-13T05:12:58;95811.56;;;14.02;86.45
40502;BME280;29631;49.168;9.848;2023-03-13T05:15:24;95812.78;;;14.11;87.13
40502;BME280;29631;49.168;9.848;2023-03-13T05:17:50;95802.59;;;14.03;86.89
40502;BME280;29631;49.168;9.848;2023-03-13T05:20:15;95814.94;;;14.14;86.80
40502;BME280;29631;49.168;9.848;2023-03-13T05:22:41;95794.25;;;14.11;87.38
40502;BME280;29631;49.168;9.848;2023-03-13T05:25:07;95801.75;;;14.19;87.81
40502;BME280;29631;49.168;9.848;2023-03-13T05:27:33;95802.38;;;14.26;87.72
40502;BME280;29631;49.168;9.848;2023-03-13T05:29:59;95786.38;;;14.21;87.72
40502;BME280;29631;49.168;9.848;2023-03-13T05:32:25;95799.94;;;14.24;88.21
40502;BME280;29631;49.168;9.848;2023-03-13T05:34:51;95751.19;;;14.04;87.70
40502;BME280;29631;49.168;9.848;2023-03-13T05:37:16;95796.56;;;14.29;88.08
40502;BME280;29631;49.168;9.848;2023-03-13T05:39:42;95795.47;;;14.25;87.57
40502;BME280;29631;49.168;9.848;2023-03-13T05:42:08;95764.50;;;14.09;87.75
40502;BME280;29631;49.168;9.848;2023-03-13T05:44:33;95792.34;;;14.33;88.40
40502;BME280;29631;49.168;9.848;2023-03-13T05:46:59;95801.47;;;14.42;87.70
40502;BME280;29631;49.168;9.848;2023-03-13T05:49:25;95799.34;;;14.39;88.21
40502;BME280;29631;49.168;9.848;2023-03-13T05:51:50;95791.38;;;14.39;88.60
40502;BME280;29631;49.168;9.848;2023-03-13T05:54:16;95790.88;;;14.42;88.65
40502;BME280;29631;49.168;9.848;2023-03-13T05:56:42;95783.88;;;14.31;88.43
40502;BME280;29631;49.168;9.848;2023-03-13T05:59:09;95784.88;;;14.51;88.94
40502;BME280;29631;49.168;9.848;2023-03-13T06:01:35;95789.97;;;14.57;88.14
40502;BME280;29631;49.168;9.848;2023-03-13T06:04:01;95774.06;;;14.57;88.68
40502;BME280;29631;49.168;9.848;2023-03-13T06:06:27;95780.47;;;14.61;88.32
40502;BME280;29631;49.168;9.848;2023-03-13T06:08:53;95791.16;;;14.71;88.53
40502;BME280;29631;49.168;9.848;2023-03-13T06:11:18;95795.97;;;14.74;89.04
40502;BME280;29631;49.168;9.848;2023-03-13T06:13:44;95795.72;;;14.76;89.09
40502;BME280;29631;49.168;9.848;2023-03-13T06:16:10;95767.66;;;14.53;88.91
40502;BME280;29631;49.168;9.848;2023-03-13T06:18:36;95786.97;;;14.75;89.57
40502;BME280;29631;49.168;9.848;2023-03-13T06:21:02;95786.41;;;14.73;89.16
40502;BME280;29631;49.168;9.848;2023-03-13T06:23:28;95789.63;;;14.75;89.62
40502;BME280;29631;49.168;9.848;2023-03-13T06:25:54;95787.25;;;14.79;89.84
40502;BME280;29631;49.168;9.848;2023-03-13T06:28:20;95785.97;;;14.81;89.63
40502;BME280;29631;49.168;9.848;2023-03-13T06:30:46;95785.97;;;14.81;89.96
40502;BME280;29631;49.168;9.848;2023-03-13T06:33:12;95761.78;;;14.78;90.03
40502;BME280;29631;49.168;9.848;2023-03-13T06:35:42;95773.53;;;14.87;90.41
40502;BME280;29631;49.168;9.848;2023-03-13T06:38:09;95764.75;;;14.86;90.14
40502;BME280;29631;49.168;9.848;2023-03-13T06:40:35;95779.19;;;14.95;90.80
40502;BME280;29631;49.168;9.848;2023-03-13T06:43:01;95756.91;;;14.96;90.59
40502;BME280;29631;49.168;9.848;2023-03-13T06:45:26;95755.59;;;14.99;90.44
40502;BME280;29631;49.168;9.848;2023-03-13T06:47:52;95765.69;;;15.02;90.95
40502;BME280;29631;49.168;9.848;2023-03-13T06:50:18;95740.41;;;14.94;90.43
40502;BME280;29631;49.168;9.848;2023-03-13T06:52:45;95762.75;;;14.98;90.91
40502;BME280;29631;49.168;9.848;2023-03-13T06:55:12;95752.16;;;15.03;90.57
40502;BME280;29631;49.168;9.848;2023-03-13T06:57:38;95774.50;;;15.07;90.51
40502;BME280;29631;49.168;9.848;2023-03-13T07:00:05;95760.41;;;15.07;90.88
40502;BME280;29631;49.168;9.848;2023-03-13T07:02:31;95772.69;;;15.13;91.03
40502;BME280;29631;49.168;9.848;2023-03-13T07:04:57;95780.69;;;15.18;90.75
40502;BME280;29631;49.168;9.848;2023-03-13T07:07:23;95762.56;;;15.10;90.69
40502;BME280;29631;49.168;9.848;2023-03-13T07:09:49;95769.25;;;15.17;90.93
40502;BME280;29631;49.168;9.848;2023-03-13T07:12:15;95786.13;;;15.32;90.82
40502;BME280;29631;49.168;9.848;2023-03-13T07:14:41;95787.44;;;15.30;91.03
40502;BME280;29631;49.168;9.848;2023-03-13T07:17:07;95790.91;;;15.30;90.56
40502;BME280;29631;49.168;9.848;2023-03-13T07:19:33;95795.19;;;15.36;90.64
40502;BME280;29631;49.168;9.848;2023-03-13T07:21:58;95797.88;;;15.41;90.90
40502;BME280;29631;49.168;9.848;2023-03-13T07:24:24;95810.41;;;15.46;91.22
40502;BME280;29631;49.168;9.848;2023-03-13T07:26:50;95820.00;;;15.52;90.94
40502;BME280;29631;49.168;9.848;2023-03-13T07:29:16;95790.66;;;15.37;91.40
40502;BME280;29631;49.168;9.848;2023-03-13T07:31:41;95820.00;;;15.52;91.19
40502;BME280;29631;49.168;9.848;2023-03-13T07:34:07;95809.38;;;15.52;91.96
40502;BME280;29631;49.168;9.848;2023-03-13T07:36:33;95776.88;;;15.35;91.74
40502;BME280;29631;49.168;9.848;2023-03-13T07:39:00;95798.75;;;15.52;91.42
40502;BME280;29631;49.168;9.848;2023-03-13T07:41:25;95795.25;;;15.46;91.82
40502;BME280;29631;49.168;9.848;2023-03-13T07:43:51;95800.34;;;15.48;91.38
40502;BME280;29631;49.168;9.848;2023-03-13T07:46:18;95812.00;;;15.47;91.76
40502;BME280;29631;49.168;9.848;2023-03-13T07:48:45;95803.25;;;15.51;91.90
40502;BME280;29631;49.168;9.848;2023-03-13T07:51:21;95780.59;;;15.39;92.33
40502;BME280;29631;49.168;9.848;2023-03-13T07:53:47;95774.25;;;15.40;91.97
40502;BME280;29631;49.168;9.848;2023-03-13T07:56:15;95776.91;;;15.45;92.06
40502;BME280;29631;49.168;9.848;2023-03-13T07:58:43;95777.22;;;15.48;92.66
40502;BME280;29631;49.168;9.848;2023-03-13T08:03:38;95767.38;;;15.49;93.10
40502;BME280;29631;49.168;9.848;2023-03-13T08:06:10;95775.59;;;15.47;93.06
40502;BME280;29631;49.168;9.848;2023-03-13T08:08:37;95770.59;;;15.51;92.89
40502;BME280;29631;49.168;9.848;2023-03-13T08:11:12;95738.88;;;15.34;92.92
40502;BME280;29631;49.168;9.848;2023-03-13T08:13:39;95781.28;;;15.61;92.79
40502;BME280;29631;49.168;9.848;2023-03-13T08:16:17;95769.06;;;15.60;92.76
40502;BME280;29631;49.168;9.848;2023-03-13T08:18:46;95756.28;;;15.62;92.97
40502;BME280;29631;49.168;9.848;2023-03-13T08:21:18;95746.75;;;15.66;93.06
40502;BME280;29631;49.168;9.848;2023-03-13T08:23:45;95754.25;;;15.74;93.02
40502;BME280;29631;49.168;9.848;2023-03-13T08:26:14;95729.25;;;15.75;92.87
40502;BME280;29631;49.168;9.848;2023-03-13T08:28:42;95764.72;;;15.95;93.11
40502;BME280;29631;49.168;9.848;2023-03-13T08:31:15;95749.53;;;15.91;92.97
40502;BME280;29631;49.168;9.848;2023-03-13T08:33:43;95742.09;;;15.93;92.78
40502;BME280;29631;49.168;9.848;2023-03-13T08:36:22;95712.88;;;15.98;93.00
40502;BME280;29631;49.168;9.848;2023-03-13T08:38:51;95727.25;;;16.06;92.71
40502;BME280;29631;49.168;9.848;2023-03-13T08:41:21;95735.22;;;16.06;92.85
40502;BME280;29631;49.168;9.848;2023-03-13T08:43:47;95739.53;;;16.17;92.94
40502;BME280;29631;49.168;9.848;2023-03-13T08:46:14;95720.91;;;16.22;92.78
40502;BME280;29631;49.168;9.848;2023-03-13T08:48:41;95736.34;;;16.25;92.71
40502;BME280;29631;49.168;9.848;2023-03-13T08:51:13;95721.97;;;16.21;92.43
40502;BME280;29631;49.168;9.848;2023-03-13T08:53:41;95735.34;;;16.36;92.96
40502;BME280;29631;49.168;9.848;2023-03-13T08:56:09;95732.16;;;16.39;92.85
40502;BME280;29631;49.168;9.848;2023-03-13T08:58:36;95738.56;;;16.53;91.98
40502;BME280;29631;49.168;9.848;2023-03-13T09:01:08;95715.41;;;16.49;92.91
40502;BME280;29631;49.168;9.848;2023-03-13T09:03:35;95720.47;;;16.55;92.35
40502;BME280;29631;49.168;9.848;2023-03-13T09:06:01;95727.94;;;16.63;92.48
40502;BME280;29631;49.168;9.848;2023-03-13T09:08:30;95717.31;;;16.63;92.44
40502;BME280;29631;49.168;9.848;2023-03-13T09:11:04;95723.69;;;16.67;92.12
40502;BME280;29631;49.168;9.848;2023-03-13T09:13:32;95719.97;;;16.78;92.29
40502;BME280;29631;49.168;9.848;2023-03-13T09:16:05;95716.22;;;16.79;92.71
40502;BME280;29631;49.168;9.848;2023-03-13T09:18:32;95710.63;;;16.80;92.07
40502;BME280;29631;49.168;9.848;2023-03-13T09:20:58;95700.78;;;16.86;92.02
40502;BME280;29631;49.168;9.848;2023-03-13T09:23:24;95708.78;;;16.96;91.98
40502;BME280;29631;49.168;9.848;2023-03-13T09:25:55;95725.81;;;17.05;92.46
40502;BME280;29631;49.168;9.848;2023-03-13T09:28:23;95719.44;;;17.01;91.41
40502;BME280;29631;49.168;9.848;2023-03-13T09:30:49;95723.16;;;17.10;91.67
40502;BME280;29631;49.168;9.848;2023-03-13T09:33:16;95714.09;;;17.11;92.05
40502;BME280;29631;49.168;9.848;2023-03-13T09:35:42;95727.41;;;17.06;92.00
40502;BME280;29631;49.168;9.848;2023-03-13T09:38:11;95734.09;;;17.18;91.80
40502;BME280;29631;49.168;9.848;2023-03-13T09:40:48;95706.09;;;17.11;91.67
40502;BME280;29631;49.168;9.848;2023-03-13T09:43:50;95740.19;;;17.24;91.36
40502;BME280;29631;49.168;9.848;2023-03-13T09:46:27;95735.41;;;17.26;91.41
40502;BME280;29631;49.168;9.848;2023-03-13T09:49:01;95731.13;;;17.25;91.55
40502;BME280;29631;49.168;9.848;2023-03-13T09:51:37;95733.31;;;17.28;92.07
40502;BME280;29631;49.168;9.848;2023-03-13T09:57:21;95751.66;;;17.34;91.23
40502;BME280;29631;49.168;9.848;2023-03-13T10:00:24;95762.31;;;17.34;91.00
40502;BME280;29631;49.168;9.848;2023-03-13T10:02:55;95756.47;;;17.37;92.13
40502;BME280;29631;49.168;9.848;2023-03-13T10:05:27;95750.06;;;17.33;91.49
40502;BME280;29631;49.168;9.848;2023-03-13T10:08:14;95750.88;;;17.34;91.18
40502;BME280;29631;49.168;9.848;2023-03-13T10:11:08;95756.47;;;17.37;90.88
40502;BME280;29631;49.168;9.848;2023-03-13T10:14:12;95757.00;;;17.44;91.17
40502;BME280;29631;49.168;9.848;2023-03-13T10:16:58;95752.44;;;17.45;91.06
40502;BME280;29631;49.168;9.848;2023-03-13T10:19:36;95721.56;;;17.39;91.00
40502;BME280;29631;49.168;9.848;2023-03-13T10:22:11;95735.91;;;17.57;91.33
40502;BME280;29631;49.168;9.848;2023-03-13T10:24:54;95728.97;;;17.56;91.19
40502;BME280;29631;49.168;9.848;2023-03-13T10:27:20;95724.66;;;17.70;91.45
40502;BME280;29631;49.168;9.848;2023-03-13T10:29:46;95704.97;;;17.66;90.82
40502;BME280;29631;49.168;9.848;2023-03-13T10:32:15;95704.94;;;17.71;90.75
40502;BME280;29631;49.168;9.848;2023-03-13T10:34:59;95712.63;;;17.78;90.75
40502;BME280;29631;49.168;9.848;2023-03-13T10:37:41;95705.13;;;17.85;90.47
40502;BME280;29631;49.168;9.848;2023-03-13T10:40:24;95717.91;;;17.93;90.77
40502;BME280;29631;49.168;9.848;2023-03-13T10:42:53;95694.97;;;17.92;90.56
40502;BME280;29631;49.168;9.848;2023-03-13T10:45:24;95707.44;;;18.06;90.36
40502;BME280;29631;49.168;9.848;2023-03-13T10:47:55;95693.59;;;18.04;90.28
40502;BME280;29631;49.168;9.848;2023-03-13T10:50:24;95696.22;;;18.09;90.03
40502;BME280;29631;49.168;9.848;2023-03-13T10:52:51;95699.94;;;18.18;90.18
40502;BME280;29631;49.168;9.848;2023-03-13T10:55:25;95691.94;;;18.23;90.00
40502;BME280;29631;49.168;9.848;2023-03-13T10:58:01;95679.66;;;18.22;89.71
40502;BME280;29631;49.168;9.848;2023-03-13T11:00:39;95686.47;;;18.38;89.33
40502;BME280;29631;49.168;9.848;2023-03-13T11:03:18;95695.53;;;18.42;90.08
40502;BME280;29631;49.168;9.848;2023-03-13T11:08:27;95670.38;;;18.53;89.98
40502;BME280;29631;49.168;9.848;2023-03-13T11:10:59;95676.16;;;18.65;89.60
40502;BME280;29631;49.168;9.848;2023-03-13T11:16:22;95662.50;;;18.71;89.28
40502;BME280;29631;49.168;9.848;2023-03-13T11:21:26;95651.94;;;18.85;89.13
40502;BME280;29631;49.168;9.848;2023-03-13T11:24:05;95652.13;;;18.98;88.95
40502;BME280;29631;49.168;9.848;2023-03-13T11:26:38;95648.81;;;19.06;89.02
40502;BME280;29631;49.168;9.848;2023-03-13T11:29:42;95647.44;;;19.13;88.62
40502;BME280;29631;49.168;9.848;2023-03-13T11:32:22;95647.09;;;19.20;88.35
40502;BME280;29631;49.168;9.848;2023-03-13T11:34:59;95642.44;;;19.30;88.19
40502;BME280;29631;49.168;9.848;2023-03-13T11:37:29;95626.94;;;19.32;88.50
40502;BME280;29631;49.168;9.848;2023-03-13T11:40:10;95634.78;;;19.47;88.11
40502;BME280;29631;49.168;9.848;2023-03-13T11:46:17;95612.69;;;19.60;88.35
40502;BME280;29631;49.168;9.848;2023-03-13T11:49:23;95603.03;;;19.64;88.19
40502;BME280;29631;49.168;9.848;2023-03-13T11:55:02;95602.84;;;19.79;88.29
40502;BME280;29631;49.168;9.848;2023-03-13T12:03:46;95584.44;;;19.96;87.37
40502;BME280;29631;49.168;9.848;2023-03-13T12:09:36;95571.31;;;20.13;87.77
40502;BME280;29631;49.168;9.848;2023-03-13T12:12:39;95572.25;;;20.22;87.45
40502;BME280;29631;49.168;9.848;2023-03-13T12:15:30;95547.72;;;20.33;87.28
40502;BME280;29631;49.168;9.848;2023-03-13T12:18:31;95534.88;;;20.48;87.23
40502;BME280;29631;49.168;9.848;2023-03-13T12:21:40;95538.09;;;20.64;86.98
40502;BME280;29631;49.168;9.848;2023-03-13T12:26:54;95536.88;;;20.88;86.33
40502;BME280;29631;49.168;9.848;2023-03-13T12:30:00;95522.09;;;21.04;86.36
40502;BME280;29631;49.168;9.848;2023-03-13T12:32:46;95519.69;;;21.16;85.74
40502;BME280;29631;49.168;9.848;2023-03-13T12:35:26;95504.81;;;21.23;84.86
40502;BME280;29631;49.168;9.848;2023-03-13T12:41:27;95507.75;;;21.49;84.90
40502;BME280;29631;49.168;9.848;2023-03-13T12:43:54;95514.03;;;21.58;84.80
40502;BME280;29631;49.168;9.848;2023-03-13T12:46:35;95483.50;;;21.67;84.59
40502;BME280;29631;49.168;9.848;2023-03-13T12:49:35;95480.31;;;21.79;84.47
40502;BME280;29631;49.168;9.848;2023-03-13T12:52:31;95471.50;;;21.87;83.57
40502;BME280;29631;49.168;9.848;2023-03-13T12:55:51;95476.59;;;21.88;83.74
40502;BME280;29631;49.168;9.848;2023-03-13T13:01:33;95451.22;;;21.94;83.41
40502;BME280;29631;49.168;9.848;2023-03-13T13:04:03;95454.16;;;22.06;83.18
40502;BME280;29631;49.168;9.848;2023-03-13T13:10:15;95437.34;;;22.22;82.53
40502;BME280;29631;49.168;9.848;2023-03-13T13:12:46;95420.44;;;22.22;82.44
40502;BME280;29631;49.168;9.848;2023-03-13T13:15:32;95408.19;;;22.29;82.22
40502;BME280;29631;49.168;9.848;2023-03-13T13:21:17;95423.81;;;22.58;81.13
40502;BME280;29631;49.168;9.848;2023-03-13T13:23:36;95406.44;;;22.55;81.44
40502;BME280;29631;49.168;9.848;2023-03-13T13:28:52;95398.97;;;22.52;81.16
40502;BME280;29631;49.168;9.848;2023-03-13T13:37:02;95386.97;;;22.58;80.90
40502;BME280;29631;49.168;9.848;2023-03-13T13:39:50;95371.94;;;22.57;80.93
40502;BME280;29631;49.168;9.848;2023-03-13T13:45:17;95364.88;;;22.61;80.56
40502;BME280;29631;49.168;9.848;2023-03-13T13:47:47;95352.53;;;22.60;80.09
40502;BME280;29631;49.168;9.848;2023-03-13T13:50:23;95343.97;;;22.58;79.68
40502;BME280;29631;49.168;9.848;2023-03-13T13:52:50;95338.00;;;22.61;80.21
40502;BME280;29631;49.168;9.848;2023-03-13T13:55:42;95335.31;;;22.61;79.77
40502;BME280;29631;49.168;9.848;2023-03-13T13:58:24;95333.56;;;22.65;79.53
40502;BME280;29631;49.168;9.848;2023-03-13T14:03:31;95311.00;;;22.83;79.30
40502;BME280;29631;49.168;9.848;2023-03-13T14:12:04;95307.13;;;23.23;78.72
40502;BME280;29631;49.168;9.848;2023-03-13T14:14:47;95301.59;;;23.36;79.31
40502;BME280;29631;49.168;9.848;2023-03-13T14:17:13;95293.19;;;23.46;78.24
40502;BME280;29631;49.168;9.848;2023-03-13T14:19:41;95283.38;;;23.58;77.58
40502;BME280;29631;49.168;9.848;2023-03-13T14:22:10;95283.50;;;23.70;77.75
40502;BME280;29631;49.168;9.848;2023-03-13T14:24:36;95278.75;;;23.76;77.06
40502;BME280;29631;49.168;9.848;2023-03-13T14:27:15;95282.25;;;23.76;76.75
40502;BME280;29631;49.168;9.848;2023-03-13T14:29:57;95286.97;;;23.88;77.35